createdAt,value
2019-03-27T00:00:47.087Z,0
2019-03-27T00:01:46.837Z,0
2019-03-27T00:02:47.648Z,0
2019-03-27T00:03:46.868Z,0
2019-03-27T00:04:47.156Z,0
2019-03-27T00:05:47.436Z,0
2019-03-27T00:06:47.452Z,0
2019-03-27T00:07:46.942Z,0
2019-03-27T00:08:47.486Z,0
2019-03-27T00:09:47.503Z,0
2019-03-27T00:10:47.255Z,0
2019-03-27T00:11:47.278Z,0
2019-03-27T00:12:47.301Z,0
2019-03-27T00:13:47.566Z,0
2019-03-27T00:14:47.607Z,0
2019-03-27T00:15:47.347Z,0
2019-03-27T00:16:47.369Z,0
2019-03-27T00:17:47.384Z,0
2019-03-27T00:18:47.143Z,0
2019-03-27T00:19:47.674Z,0
2019-03-27T00:20:47.430Z,0
2019-03-27T00:21:47.712Z,0
2019-03-27T00:22:47.465Z,0
2019-03-27T00:23:47.745Z,0
2019-03-27T00:24:47.762Z,0
2019-03-27T00:25:47.259Z,0
2019-03-27T00:26:47.539Z,0
2019-03-27T00:27:47.554Z,0
2019-03-27T00:28:48.103Z,0
2019-03-27T00:29:47.853Z,0
2019-03-27T00:30:47.345Z,0
2019-03-27T00:31:47.377Z,0
2019-03-27T00:32:47.936Z,0
2019-03-27T00:33:47.662Z,0
2019-03-27T00:34:47.684Z,0
2019-03-27T00:35:47.707Z,0
2019-03-27T00:36:47.709Z,0
2019-03-27T00:37:47.725Z,0
2019-03-27T00:38:48.016Z,0
2019-03-27T00:39:47.762Z,0
2019-03-27T00:40:47.519Z,0
2019-03-27T00:41:48.338Z,0
2019-03-27T00:42:47.551Z,0
2019-03-27T00:43:47.839Z,0
2019-03-27T00:44:47.850Z,0
2019-03-27T00:45:48.130Z,0
2019-03-27T00:46:47.890Z,0
2019-03-27T00:47:48.167Z,0
2019-03-27T00:48:47.928Z,0
2019-03-27T00:49:48.245Z,0
2019-03-27T00:50:47.957Z,0
2019-03-27T00:51:48.308Z,0
2019-03-27T00:52:47.987Z,0
2019-03-27T00:53:48.283Z,0
2019-03-27T00:54:48.284Z,0
2019-03-27T00:55:48.049Z,0
2019-03-27T00:56:47.801Z,0
2019-03-27T00:57:47.859Z,0
2019-03-27T00:58:48.096Z,0
2019-03-27T00:59:48.375Z,0
2019-03-27T01:00:48.130Z,0
2019-03-27T01:01:47.885Z,0
2019-03-27T01:02:47.901Z,0
2019-03-27T01:03:48.177Z,0
2019-03-27T01:04:48.203Z,0
2019-03-27T01:05:48.477Z,0
2019-03-27T01:06:50.890Z,0
2019-03-27T01:07:48.785Z,0
2019-03-27T01:08:48.296Z,0
2019-03-27T01:09:48.287Z,0
2019-03-27T01:10:48.833Z,0
2019-03-27T01:11:48.325Z,0
2019-03-27T01:12:48.081Z,0
2019-03-27T01:13:48.617Z,0
2019-03-27T01:14:48.373Z,0
2019-03-27T01:15:48.128Z,0
2019-03-27T01:16:48.397Z,0
2019-03-27T01:17:48.428Z,0
2019-03-27T01:18:48.451Z,0
2019-03-27T01:19:48.200Z,0
2019-03-27T01:20:48.745Z,0
2019-03-27T01:21:48.503Z,0
2019-03-27T01:22:48.774Z,0
2019-03-27T01:23:48.790Z,0
2019-03-27T01:24:48.309Z,0
2019-03-27T01:25:48.831Z,0
2019-03-27T01:26:48.315Z,0
2019-03-27T01:27:48.617Z,0
2019-03-27T01:28:48.882Z,0
2019-03-27T01:29:49.233Z,0
2019-03-27T01:30:48.911Z,0
2019-03-27T01:31:48.668Z,0
2019-03-27T01:32:48.951Z,0
2019-03-27T01:33:48.965Z,0
2019-03-27T01:34:48.979Z,0
2019-03-27T01:35:49.000Z,0
2019-03-27T01:36:49.022Z,0
2019-03-27T01:37:48.816Z,0
2019-03-27T01:38:49.322Z,0
2019-03-27T01:39:49.069Z,0
2019-03-27T01:40:49.085Z,0
2019-03-27T01:41:48.574Z,0
2019-03-27T01:42:49.414Z,0
2019-03-27T01:43:48.606Z,0
2019-03-27T01:44:48.628Z,0
2019-03-27T01:46:00.304Z,0
2019-03-27T01:46:49.188Z,0
2019-03-27T01:47:49.470Z,0
2019-03-27T01:48:49.267Z,0
2019-03-27T01:49:49.254Z,0
2019-03-27T01:50:49.252Z,0
2019-03-27T01:51:48.767Z,0
2019-03-27T01:52:49.300Z,0
2019-03-27T01:53:49.050Z,0
2019-03-27T01:54:49.330Z,0
2019-03-27T01:55:49.620Z,0
2019-03-27T01:56:49.362Z,0
2019-03-27T01:57:49.651Z,0
2019-03-27T01:58:49.414Z,0
2019-03-27T01:59:49.684Z,0
2019-03-27T02:00:49.705Z,0
2019-03-27T02:01:49.705Z,0
2019-03-27T02:02:49.481Z,0
2019-03-27T02:03:49.487Z,0
2019-03-27T02:04:49.498Z,0
2019-03-27T02:05:49.525Z,0
2019-03-27T02:06:49.538Z,0
2019-03-27T02:07:49.295Z,0
2019-03-27T02:08:49.585Z,0
2019-03-27T02:09:49.323Z,0
2019-03-27T02:10:49.346Z,0
2019-03-27T02:11:49.362Z,0
2019-03-27T02:12:49.636Z,0
2019-03-27T02:13:49.651Z,0
2019-03-27T02:14:49.147Z,0
2019-03-27T02:15:49.714Z,0
2019-03-27T02:16:49.704Z,0
2019-03-27T02:17:49.459Z,0
2019-03-27T02:18:49.745Z,0
2019-03-27T02:19:49.757Z,0
2019-03-27T02:20:49.776Z,0
2019-03-27T02:21:49.532Z,0
2019-03-27T02:22:50.068Z,0
2019-03-27T02:23:49.826Z,0
2019-03-27T02:24:49.582Z,0
2019-03-27T02:25:49.866Z,0
2019-03-27T02:26:50.142Z,0
2019-03-27T02:27:49.637Z,0
2019-03-27T02:28:49.909Z,0
2019-03-27T02:29:49.666Z,0
2019-03-27T02:30:49.954Z,0
2019-03-27T02:31:49.782Z,0
2019-03-27T02:32:49.993Z,0
2019-03-27T02:33:50.264Z,0
2019-03-27T02:34:49.770Z,0
2019-03-27T02:35:50.307Z,0
2019-03-27T02:36:50.087Z,0
2019-03-27T02:37:49.556Z,0
2019-03-27T02:38:50.111Z,0
2019-03-27T02:39:50.137Z,0
2019-03-27T02:40:50.296Z,0
2019-03-27T02:41:49.880Z,0
2019-03-27T02:42:49.912Z,0
2019-03-27T02:43:50.465Z,0
2019-03-27T02:44:50.202Z,0
2019-03-27T02:45:50.222Z,0
2019-03-27T02:46:49.973Z,0
2019-03-27T02:47:50.253Z,0
2019-03-27T02:48:50.024Z,0
2019-03-27T02:49:50.030Z,0
2019-03-27T02:50:50.057Z,0
2019-03-27T02:51:50.392Z,0
2019-03-27T02:52:50.086Z,0
2019-03-27T02:53:50.099Z,0
2019-03-27T02:54:50.772Z,0
2019-03-27T02:55:50.118Z,0
2019-03-27T02:56:50.172Z,0
2019-03-27T02:57:50.229Z,0
2019-03-27T02:58:50.457Z,0
2019-03-27T02:59:50.488Z,0
2019-03-27T03:00:50.224Z,0
2019-03-27T03:01:54.319Z,0
2019-03-27T03:02:50.260Z,0
2019-03-27T03:03:50.526Z,0
2019-03-27T03:04:50.544Z,0
2019-03-27T03:05:50.557Z,0
2019-03-27T03:06:50.577Z,0
2019-03-27T03:07:50.602Z,0
2019-03-27T03:08:50.365Z,0
2019-03-27T03:09:50.629Z,0
2019-03-27T03:10:52.760Z,0
2019-03-27T03:11:50.699Z,0
2019-03-27T03:12:50.163Z,0
2019-03-27T03:13:50.723Z,0
2019-03-27T03:14:50.457Z,0
2019-03-27T03:15:50.744Z,0
2019-03-27T03:16:50.228Z,0
2019-03-27T03:17:50.802Z,0
2019-03-27T03:18:50.529Z,0
2019-03-27T03:19:51.073Z,0
2019-03-27T03:20:50.819Z,0
2019-03-27T03:21:50.576Z,0
2019-03-27T03:22:51.130Z,0
2019-03-27T03:23:50.616Z,0
2019-03-27T03:24:51.059Z,0
2019-03-27T03:25:50.915Z,0
2019-03-27T03:26:55.113Z,0
2019-03-27T03:27:51.068Z,0
2019-03-27T03:28:51.249Z,0
2019-03-27T03:29:50.719Z,0
2019-03-27T03:30:51.200Z,0
2019-03-27T03:31:50.807Z,0
2019-03-27T03:32:51.090Z,0
2019-03-27T03:33:51.077Z,0
2019-03-27T03:34:51.194Z,0
2019-03-27T03:35:51.074Z,0
2019-03-27T03:36:51.114Z,0
2019-03-27T03:37:51.132Z,0
2019-03-27T03:38:50.923Z,0
2019-03-27T03:39:51.273Z,0
2019-03-27T03:40:50.910Z,0
2019-03-27T03:41:50.916Z,0
2019-03-27T03:42:50.936Z,0
2019-03-27T03:43:50.957Z,0
2019-03-27T03:44:50.726Z,0
2019-03-27T03:45:51.511Z,0
2019-03-27T03:47:06.578Z,0
2019-03-27T03:47:51.022Z,0
2019-03-27T03:48:51.041Z,0
2019-03-27T03:49:51.336Z,0
2019-03-27T03:50:51.634Z,0
2019-03-27T03:51:51.366Z,0
2019-03-27T03:52:52.542Z,0
2019-03-27T03:53:51.399Z,0
2019-03-27T03:54:51.162Z,0
2019-03-27T03:55:51.171Z,0
2019-03-27T03:56:51.451Z,0
2019-03-27T03:57:51.216Z,0
2019-03-27T03:58:50.979Z,0
2019-03-27T03:59:51.502Z,0
2019-03-27T04:00:51.785Z,0
2019-03-27T04:01:51.278Z,0
2019-03-27T04:02:51.279Z,0
2019-03-27T04:03:51.308Z,0
2019-03-27T04:04:51.320Z,0
2019-03-27T04:05:51.508Z,0
2019-03-27T04:06:51.880Z,0
2019-03-27T04:07:51.964Z,0
2019-03-27T04:08:51.417Z,0
2019-03-27T04:09:51.408Z,0
2019-03-27T04:10:51.803Z,0
2019-03-27T04:11:51.462Z,0
2019-03-27T04:12:51.718Z,0
2019-03-27T04:13:52.021Z,0
2019-03-27T04:14:51.775Z,0
2019-03-27T04:15:52.044Z,0
2019-03-27T04:16:51.910Z,0
2019-03-27T04:17:51.591Z,0
2019-03-27T04:18:51.653Z,0
2019-03-27T04:19:51.577Z,0
2019-03-27T04:20:51.334Z,0
2019-03-27T04:21:51.918Z,0
2019-03-27T04:22:51.908Z,0
2019-03-27T04:23:52.181Z,0
2019-03-27T04:24:51.938Z,0
2019-03-27T04:26:16.129Z,0
2019-03-27T04:26:51.444Z,0
2019-03-27T04:27:51.983Z,0
2019-03-27T04:28:51.477Z,0
2019-03-27T04:29:52.024Z,0
2019-03-27T04:30:52.052Z,0
2019-03-27T04:31:51.798Z,0
2019-03-27T04:32:52.071Z,0
2019-03-27T04:33:52.100Z,0
2019-03-27T04:34:54.117Z,0
2019-03-27T04:35:52.136Z,0
2019-03-27T04:36:51.877Z,0
2019-03-27T04:37:52.154Z,0
2019-03-27T04:38:52.451Z,0
2019-03-27T04:39:51.922Z,0
2019-03-27T04:40:51.686Z,0
2019-03-27T04:41:51.967Z,0
2019-03-27T04:42:52.236Z,0
2019-03-27T04:43:51.730Z,0
2019-03-27T04:44:52.281Z,0
2019-03-27T04:45:52.109Z,0
2019-03-27T04:46:51.785Z,0
2019-03-27T04:47:52.077Z,0
2019-03-27T04:48:52.085Z,0
2019-03-27T04:49:52.357Z,0
2019-03-27T04:50:52.119Z,0
2019-03-27T04:51:52.672Z,0
2019-03-27T04:52:52.675Z,4
2019-03-27T04:53:52.433Z,0
2019-03-27T04:54:52.449Z,0
2019-03-27T04:55:51.939Z,4
2019-03-27T04:56:52.486Z,4
2019-03-27T04:57:52.238Z,4
2019-03-27T04:58:51.988Z,4
2019-03-27T04:59:52.266Z,4
2019-03-27T05:00:52.289Z,4
2019-03-27T05:01:52.825Z,4
2019-03-27T05:02:52.327Z,8
2019-03-27T05:03:52.341Z,4
2019-03-27T05:04:52.371Z,8
2019-03-27T05:05:52.126Z,8
2019-03-27T05:06:52.415Z,8
2019-03-27T05:07:52.152Z,8
2019-03-27T05:08:52.434Z,16
2019-03-27T05:09:52.450Z,20
2019-03-27T05:10:52.457Z,16
2019-03-27T05:11:53.031Z,12
2019-03-27T05:12:52.774Z,16
2019-03-27T05:13:52.538Z,20
2019-03-27T05:14:52.530Z,24
2019-03-27T05:15:52.548Z,28
2019-03-27T05:16:52.563Z,32
2019-03-27T05:17:53.440Z,36
2019-03-27T05:18:52.861Z,48
2019-03-27T05:19:52.358Z,52
2019-03-27T05:20:52.900Z,52
2019-03-27T05:21:52.650Z,56
2019-03-27T05:22:52.671Z,64
2019-03-27T05:23:53.213Z,76
2019-03-27T05:24:52.969Z,76
2019-03-27T05:25:53.260Z,80
2019-03-27T05:26:53.267Z,76
2019-03-27T05:27:52.756Z,72
2019-03-27T05:28:52.775Z,76
2019-03-27T05:29:52.523Z,84
2019-03-27T05:30:52.806Z,104
2019-03-27T05:31:52.823Z,124
2019-03-27T05:32:52.583Z,128
2019-03-27T05:33:53.114Z,128
2019-03-27T05:34:52.875Z,124
2019-03-27T05:35:52.890Z,100
2019-03-27T05:36:53.433Z,92
2019-03-27T05:37:52.961Z,92
2019-03-27T05:38:52.948Z,92
2019-03-27T05:39:52.959Z,96
2019-03-27T05:40:52.821Z,100
2019-03-27T05:41:52.995Z,100
2019-03-27T05:43:07.011Z,96
2019-03-27T05:43:53.037Z,104
2019-03-27T05:44:53.046Z,112
2019-03-27T05:45:53.066Z,116
2019-03-27T05:46:53.091Z,112
2019-03-27T05:48:06.707Z,132
2019-03-27T05:48:53.376Z,132
2019-03-27T05:49:53.410Z,144
2019-03-27T05:50:53.434Z,152
2019-03-27T05:51:53.172Z,132
2019-03-27T05:52:52.923Z,124
2019-03-27T05:53:52.942Z,128
2019-03-27T05:54:53.226Z,144
2019-03-27T05:55:53.246Z,148
2019-03-27T05:56:53.519Z,160
2019-03-27T05:57:53.296Z,160
2019-03-27T05:58:53.560Z,160
2019-03-27T05:59:53.306Z,164
2019-03-27T06:00:53.680Z,164
2019-03-27T06:01:53.347Z,168
2019-03-27T06:02:53.624Z,192
2019-03-27T06:03:53.377Z,208
2019-03-27T06:04:53.665Z,220
2019-03-27T06:05:53.152Z,248
2019-03-27T06:06:53.478Z,268
2019-03-27T06:07:53.556Z,312
2019-03-27T06:08:53.736Z,372
2019-03-27T06:09:53.773Z,456
2019-03-27T06:10:53.804Z,540
2019-03-27T06:11:53.255Z,576
2019-03-27T06:12:53.800Z,556
2019-03-27T06:13:53.818Z,532
2019-03-27T06:14:53.828Z,560
2019-03-27T06:15:53.862Z,628
2019-03-27T06:16:53.868Z,684
2019-03-27T06:17:53.889Z,652
2019-03-27T06:18:53.424Z,636
2019-03-27T06:19:53.658Z,596
2019-03-27T06:20:53.937Z,560
2019-03-27T06:21:53.688Z,692
2019-03-27T06:22:53.448Z,736
2019-03-27T06:23:53.467Z,924
2019-03-27T06:24:54.003Z,1004
2019-03-27T06:25:54.025Z,844
2019-03-27T06:26:54.042Z,864
2019-03-27T06:27:54.324Z,872
2019-03-27T06:28:53.818Z,788
2019-03-27T06:29:53.571Z,776
2019-03-27T06:30:54.105Z,800
2019-03-27T06:31:54.386Z,784
2019-03-27T06:32:54.151Z,720
2019-03-27T06:33:53.900Z,680
2019-03-27T06:34:53.914Z,736
2019-03-27T06:35:53.938Z,728
2019-03-27T06:36:54.220Z,832
2019-03-27T06:37:53.966Z,1024
2019-03-27T06:38:54.512Z,924
2019-03-27T06:39:54.269Z,792
2019-03-27T06:40:54.018Z,904
2019-03-27T06:41:54.056Z,864
2019-03-27T06:42:53.790Z,864
2019-03-27T06:43:54.601Z,824
2019-03-27T06:44:54.354Z,680
2019-03-27T06:45:53.852Z,612
2019-03-27T06:46:54.132Z,832
2019-03-27T06:47:54.162Z,760
2019-03-27T06:48:54.430Z,972
2019-03-27T06:49:53.915Z,1000
2019-03-27T06:50:54.459Z,1040
2019-03-27T06:51:53.950Z,1016
2019-03-27T06:52:54.235Z,1116
2019-03-27T06:53:54.511Z,1052
2019-03-27T06:54:54.587Z,932
2019-03-27T06:55:54.023Z,888
2019-03-27T06:56:54.560Z,740
2019-03-27T06:57:54.322Z,776
2019-03-27T06:59:02.081Z,820
2019-03-27T06:59:54.092Z,1036
2019-03-27T07:00:54.389Z,896
2019-03-27T07:01:54.684Z,808
2019-03-27T07:02:54.422Z,856
2019-03-27T07:03:54.688Z,892
2019-03-27T07:04:54.969Z,784
2019-03-27T07:05:54.987Z,712
2019-03-27T07:06:54.765Z,752
2019-03-27T07:07:54.765Z,664
2019-03-27T07:08:54.516Z,616
2019-03-27T07:09:55.056Z,596
2019-03-27T07:10:54.548Z,504
2019-03-27T07:11:54.308Z,420
2019-03-27T07:12:54.580Z,432
2019-03-27T07:13:54.605Z,384
2019-03-27T07:14:54.876Z,424
2019-03-27T07:15:54.900Z,444
2019-03-27T07:16:54.919Z,516
2019-03-27T07:17:54.677Z,480
2019-03-27T07:18:54.950Z,420
2019-03-27T07:19:54.965Z,480
2019-03-27T07:20:54.724Z,600
2019-03-27T07:21:54.740Z,828
2019-03-27T07:22:55.283Z,988
2019-03-27T07:23:54.518Z,1004
2019-03-27T07:24:55.057Z,940
2019-03-27T07:25:55.087Z,968
2019-03-27T07:26:55.354Z,832
2019-03-27T07:27:54.863Z,1072
2019-03-27T07:28:54.604Z,1180
2019-03-27T07:29:54.905Z,896
2019-03-27T07:30:54.919Z,904
2019-03-27T07:31:54.652Z,880
2019-03-27T07:32:55.207Z,808
2019-03-27T07:33:55.038Z,728
2019-03-27T07:34:55.229Z,816
2019-03-27T07:35:55.253Z,1204
2019-03-27T07:36:58.371Z,1444
2019-03-27T07:37:55.031Z,1088
2019-03-27T07:38:55.033Z,1352
2019-03-27T07:39:55.316Z,1336
2019-03-27T07:40:54.807Z,1400
2019-03-27T07:41:55.361Z,1724
2019-03-27T07:42:55.373Z,1640
2019-03-27T07:43:55.122Z,1372
2019-03-27T07:44:55.142Z,1476
2019-03-27T07:45:55.425Z,1624
2019-03-27T07:46:55.442Z,1620
2019-03-27T07:47:55.194Z,1464
2019-03-27T07:49:01.114Z,1424
2019-03-27T07:49:55.489Z,1540
2019-03-27T07:50:55.247Z,1436
2019-03-27T07:51:55.529Z,1644
2019-03-27T07:52:55.805Z,1540
2019-03-27T07:53:55.302Z,1576
2019-03-27T07:54:55.613Z,1600
2019-03-27T07:55:55.604Z,1672
2019-03-27T07:56:55.622Z,1664
2019-03-27T07:57:55.371Z,1780
2019-03-27T07:58:55.649Z,1760
2019-03-27T07:59:55.144Z,1828
2019-03-27T08:00:55.698Z,1512
2019-03-27T08:01:55.256Z,1508
2019-03-27T08:02:55.999Z,1660
2019-03-27T08:03:55.218Z,1588
2019-03-27T08:04:55.502Z,1648
2019-03-27T08:05:55.793Z,1468
2019-03-27T08:06:55.794Z,1420
2019-03-27T08:07:56.068Z,1308
2019-03-27T08:08:55.585Z,1248
2019-03-27T08:09:55.323Z,1180
2019-03-27T08:10:55.340Z,1176
2019-03-27T08:11:55.617Z,1068
2019-03-27T08:12:55.376Z,1032
2019-03-27T08:13:55.919Z,1056
2019-03-27T08:14:55.694Z,1228
2019-03-27T08:15:55.956Z,1180
2019-03-27T08:16:55.709Z,1208
2019-03-27T08:17:55.460Z,1220
2019-03-27T08:19:09.135Z,1600
2019-03-27T08:19:55.505Z,1816
2019-03-27T08:20:55.776Z,1708
2019-03-27T08:21:56.324Z,1624
2019-03-27T08:22:55.812Z,1472
2019-03-27T08:23:55.832Z,1436
2019-03-27T08:24:55.844Z,1588
2019-03-27T08:25:56.126Z,1588
2019-03-27T08:26:55.876Z,1356
2019-03-27T08:27:56.173Z,1360
2019-03-27T08:28:55.919Z,1792
2019-03-27T08:29:55.940Z,2040
2019-03-27T08:30:56.479Z,1932
2019-03-27T08:31:55.979Z,1868
2019-03-27T08:32:55.729Z,2092
2019-03-27T08:33:56.010Z,1968
2019-03-27T08:34:56.292Z,2400
2019-03-27T08:35:56.308Z,2620
2019-03-27T08:36:56.344Z,3256
2019-03-27T08:37:56.077Z,2804
2019-03-27T08:38:56.115Z,2200
2019-03-27T08:39:56.121Z,1904
2019-03-27T08:40:56.145Z,1564
2019-03-27T08:41:56.681Z,1264
2019-03-27T08:42:56.192Z,1256
2019-03-27T08:43:56.447Z,1256
2019-03-27T08:44:56.468Z,1384
2019-03-27T08:45:56.493Z,1484
2019-03-27T08:46:56.501Z,1372
2019-03-27T08:47:56.573Z,1548
2019-03-27T08:48:56.023Z,1476
2019-03-27T08:49:56.032Z,1712
2019-03-27T08:50:56.316Z,1820
2019-03-27T08:51:56.332Z,2072
2019-03-27T08:52:56.629Z,2384
2019-03-27T08:53:56.632Z,2368
2019-03-27T08:54:56.378Z,2320
2019-03-27T08:55:56.673Z,2172
2019-03-27T08:56:56.421Z,2012
2019-03-27T08:57:56.701Z,1868
2019-03-27T08:58:56.976Z,1928
2019-03-27T08:59:56.731Z,1888
2019-03-27T09:00:56.511Z,1904
2019-03-27T09:01:56.774Z,1748
2019-03-27T09:02:56.536Z,1684
2019-03-27T09:03:57.072Z,1604
2019-03-27T09:04:56.826Z,1620
2019-03-27T09:05:56.867Z,1604
2019-03-27T09:06:56.606Z,1572
2019-03-27T09:07:56.356Z,1688
2019-03-27T09:08:56.897Z,2080
2019-03-27T09:09:56.913Z,2532
2019-03-27T09:10:56.742Z,2576
2019-03-27T09:11:56.690Z,2432
2019-03-27T09:12:56.969Z,2848
2019-03-27T09:13:56.999Z,2916
2019-03-27T09:14:57.022Z,2920
2019-03-27T09:15:56.766Z,3332
2019-03-27T09:16:57.046Z,2984
2019-03-27T09:17:57.061Z,2392
2019-03-27T09:18:57.088Z,2312
2019-03-27T09:19:56.570Z,3048
2019-03-27T09:20:56.873Z,3596
2019-03-27T09:21:57.146Z,3952
2019-03-27T09:22:57.149Z,4220
2019-03-27T09:23:56.917Z,4140
2019-03-27T09:24:56.666Z,3932
2019-03-27T09:25:56.951Z,3868
2019-03-27T09:26:57.221Z,3696
2019-03-27T09:27:57.505Z,3740
2019-03-27T09:28:57.261Z,3772
2019-03-27T09:29:57.276Z,3024
2019-03-27T09:30:57.033Z,2876
2019-03-27T09:31:57.053Z,2860
2019-03-27T09:32:56.810Z,2420
2019-03-27T09:33:57.094Z,2040
2019-03-27T09:34:57.111Z,2392
2019-03-27T09:35:57.391Z,2920
2019-03-27T09:36:57.412Z,3572
2019-03-27T09:37:57.424Z,4012
2019-03-27T09:38:57.441Z,4104
2019-03-27T09:39:57.195Z,4112
2019-03-27T09:40:57.288Z,4252
2019-03-27T09:41:57.759Z,4380
2019-03-27T09:42:57.779Z,4460
2019-03-27T09:43:57.271Z,4568
2019-03-27T09:44:57.288Z,4496
2019-03-27T09:45:57.563Z,4432
2019-03-27T09:46:57.326Z,4548
2019-03-27T09:47:57.093Z,4424
2019-03-27T09:48:57.888Z,4516
2019-03-27T09:49:57.384Z,4692
2019-03-27T09:50:57.662Z,4748
2019-03-27T09:51:57.415Z,4404
2019-03-27T09:52:57.441Z,4204
2019-03-27T09:53:59.964Z,4368
2019-03-27T09:54:57.732Z,4436
2019-03-27T09:55:57.755Z,4456
2019-03-27T09:56:57.510Z,4252
2019-03-27T09:57:57.522Z,4076
2019-03-27T09:58:57.334Z,3964
2019-03-27T09:59:57.319Z,3632
2019-03-27T10:00:57.862Z,3760
2019-03-27T10:01:57.862Z,3744
2019-03-27T10:02:59.475Z,4220
2019-03-27T10:03:57.636Z,4136
2019-03-27T10:05:00.645Z,4232
2019-03-27T10:05:57.671Z,4680
2019-03-27T10:06:57.692Z,4684
2019-03-27T10:07:57.970Z,4380
2019-03-27T10:08:57.725Z,4096
2019-03-27T10:09:58.016Z,3836
2019-03-27T10:10:57.765Z,3960
2019-03-27T10:11:57.793Z,4064
2019-03-27T10:12:57.803Z,3528
2019-03-27T10:13:57.819Z,3356
2019-03-27T10:14:58.104Z,3664
2019-03-27T10:15:57.851Z,3904
2019-03-27T10:16:58.411Z,4348
2019-03-27T10:17:57.894Z,5040
2019-03-27T10:18:57.674Z,4956
2019-03-27T10:20:13.414Z,4716
2019-03-27T10:20:57.764Z,4564
2019-03-27T10:21:58.236Z,4680
2019-03-27T10:22:58.511Z,4300
2019-03-27T10:23:58.269Z,3780
2019-03-27T10:24:58.553Z,3456
2019-03-27T10:25:57.787Z,3708
2019-03-27T10:26:58.067Z,3844
2019-03-27T10:27:58.354Z,4052
2019-03-27T10:28:58.111Z,4388
2019-03-27T10:29:58.175Z,4984
2019-03-27T10:30:58.133Z,4728
2019-03-27T10:31:58.150Z,4484
2019-03-27T10:32:58.434Z,4996
2019-03-27T10:33:58.196Z,5368
2019-03-27T10:34:58.471Z,5316
2019-03-27T10:35:58.234Z,5124
2019-03-27T10:36:58.251Z,5184
2019-03-27T10:37:58.280Z,5152
2019-03-27T10:38:58.557Z,5232
2019-03-27T10:39:58.307Z,5160
2019-03-27T10:40:58.063Z,4904
2019-03-27T10:41:58.344Z,4668
2019-03-27T10:42:58.113Z,4604
2019-03-27T10:43:58.642Z,4636
2019-03-27T10:44:58.403Z,5000
2019-03-27T10:45:58.679Z,5332
2019-03-27T10:46:58.703Z,5544
2019-03-27T10:47:58.456Z,5824
2019-03-27T10:49:00.196Z,5312
2019-03-27T10:49:58.496Z,5288
2019-03-27T10:50:58.785Z,5272
2019-03-27T10:51:59.055Z,4832
2019-03-27T10:52:58.854Z,4532
2019-03-27T10:53:59.102Z,4256
2019-03-27T10:54:58.591Z,4252
2019-03-27T10:55:58.875Z,4312
2019-03-27T10:56:58.680Z,4384
2019-03-27T10:57:58.645Z,4528
2019-03-27T10:58:58.661Z,5004
2019-03-27T10:59:58.686Z,5664
2019-03-27T11:00:58.702Z,5900
2019-03-27T11:01:58.483Z,5716
2019-03-27T11:02:58.478Z,5884
2019-03-27T11:03:58.754Z,5852
2019-03-27T11:04:59.038Z,5088
2019-03-27T11:05:58.533Z,4956
2019-03-27T11:06:59.072Z,4680
2019-03-27T11:07:59.103Z,4496
2019-03-27T11:08:59.112Z,4668
2019-03-27T11:09:58.620Z,4960
2019-03-27T11:10:58.729Z,4992
2019-03-27T11:11:58.930Z,5076
2019-03-27T11:12:58.925Z,5024
2019-03-27T11:13:59.212Z,5076
2019-03-27T11:14:59.307Z,5180
2019-03-27T11:15:58.983Z,5456
2019-03-27T11:16:58.745Z,5456
2019-03-27T11:17:59.025Z,5364
2019-03-27T11:18:59.041Z,5412
2019-03-27T11:19:59.328Z,5356
2019-03-27T11:20:59.358Z,5252
2019-03-27T11:21:59.368Z,5148
2019-03-27T11:22:59.117Z,5036
2019-03-27T11:23:59.142Z,4864
2019-03-27T11:24:59.421Z,4688
2019-03-27T11:25:59.466Z,4596
2019-03-27T11:26:59.722Z,4380
2019-03-27T11:27:59.345Z,4096
2019-03-27T11:28:59.239Z,3824
2019-03-27T11:29:59.072Z,3584
2019-03-27T11:30:59.544Z,3936
2019-03-27T11:31:59.557Z,4364
2019-03-27T11:32:59.309Z,4172
2019-03-27T11:33:59.338Z,4232
2019-03-27T11:34:59.611Z,4248
2019-03-27T11:35:59.633Z,4356
2019-03-27T11:36:59.655Z,4296
2019-03-27T11:37:59.670Z,3888
2019-03-27T11:38:59.983Z,3608
2019-03-27T11:39:59.970Z,3044
2019-03-27T11:40:59.990Z,2816
2019-03-27T11:42:03.151Z,2844
2019-03-27T11:42:59.767Z,3116
2019-03-27T11:44:01.976Z,3492
2019-03-27T11:44:59.546Z,3788
2019-03-27T11:46:00.094Z,3724
2019-03-27T11:46:59.581Z,3936
2019-03-27T11:48:00.138Z,3536
2019-03-27T11:48:59.355Z,3276
2019-03-27T11:49:59.634Z,3204
2019-03-27T11:50:59.658Z,3168
2019-03-27T11:51:59.677Z,3308
2019-03-27T11:52:59.961Z,3524
2019-03-27T11:53:59.977Z,3668
2019-03-27T11:54:59.735Z,4092
2019-03-27T11:55:59.750Z,4244
2019-03-27T11:57:00.034Z,4244
2019-03-27T11:57:59.786Z,4272
2019-03-27T11:59:00.072Z,4684
2019-03-27T12:00:01.434Z,5140
2019-03-27T12:01:02.062Z,5604
2019-03-27T12:02:00.141Z,6064
2019-03-27T12:03:00.166Z,6496
2019-03-27T12:03:59.904Z,6492
2019-03-27T12:04:59.926Z,6424
2019-03-27T12:05:59.748Z,5908
2019-03-27T12:07:00.491Z,5144
2019-03-27T12:07:59.982Z,4896
2019-03-27T12:09:00.267Z,4880
2019-03-27T12:10:00.022Z,5452
2019-03-27T12:11:00.306Z,5916
2019-03-27T12:12:00.586Z,5048
2019-03-27T12:13:00.343Z,5044
2019-03-27T12:13:59.848Z,5244
2019-03-27T12:15:00.252Z,6008
2019-03-27T12:16:00.138Z,5816
2019-03-27T12:17:00.428Z,5728
2019-03-27T12:18:00.246Z,5472
2019-03-27T12:19:00.504Z,5244
2019-03-27T12:20:00.747Z,4848
2019-03-27T12:21:06.155Z,4536
2019-03-27T12:22:01.485Z,4728
2019-03-27T12:23:04.742Z,4832
2019-03-27T12:24:00.301Z,4640
2019-03-27T12:25:00.353Z,4232
2019-03-27T12:26:02.314Z,3972
2019-03-27T12:27:00.629Z,4144
2019-03-27T12:28:00.117Z,4212
2019-03-27T12:29:00.659Z,4308
2019-03-27T12:30:00.946Z,4460
2019-03-27T12:31:00.727Z,4608
2019-03-27T12:32:00.197Z,4796
2019-03-27T12:33:00.482Z,4320
2019-03-27T12:34:00.495Z,3900
2019-03-27T12:35:00.340Z,3588
2019-03-27T12:36:00.806Z,3420
2019-03-27T12:37:00.820Z,3612
2019-03-27T12:38:00.861Z,3940
2019-03-27T12:39:00.866Z,4120
2019-03-27T12:40:00.869Z,4100
2019-03-27T12:41:00.898Z,4304
2019-03-27T12:42:00.386Z,4772
2019-03-27T12:43:01.198Z,4724
2019-03-27T12:44:02.520Z,3832
2019-03-27T12:45:04.394Z,3588
2019-03-27T12:46:00.484Z,3384
2019-03-27T12:47:01.015Z,3180
2019-03-27T12:48:01.029Z,3432
2019-03-27T12:49:01.061Z,3972
2019-03-27T12:50:01.076Z,4476
2019-03-27T12:51:14.265Z,4700
2019-03-27T12:52:00.848Z,4888
2019-03-27T12:53:01.392Z,5276
2019-03-27T12:54:01.145Z,5372
2019-03-27T12:55:00.989Z,5444
2019-03-27T12:56:00.929Z,5280
2019-03-27T12:57:00.941Z,5160
2019-03-27T12:58:01.227Z,5308
2019-03-27T12:59:00.725Z,5708
2019-03-27T13:00:01.260Z,6172
2019-03-27T13:01:00.774Z,6284
2019-03-27T13:02:01.565Z,6172
2019-03-27T13:03:01.072Z,5952
2019-03-27T13:04:01.084Z,6040
2019-03-27T13:05:01.135Z,5820
2019-03-27T13:06:01.120Z,5512
2019-03-27T13:07:01.408Z,5492
2019-03-27T13:08:01.423Z,6228
2019-03-27T13:09:01.191Z,7048
2019-03-27T13:10:01.216Z,6936
2019-03-27T13:11:01.218Z,6608
2019-03-27T13:12:01.517Z,6196
2019-03-27T13:13:01.526Z,6032
2019-03-27T13:14:01.019Z,5692
2019-03-27T13:15:01.573Z,5220
2019-03-27T13:16:01.320Z,4924
2019-03-27T13:17:01.629Z,4788
2019-03-27T13:18:01.363Z,4908
2019-03-27T13:19:01.120Z,4640
2019-03-27T13:20:01.399Z,4192
2019-03-27T13:21:01.424Z,4076
2019-03-27T13:22:01.704Z,4300
2019-03-27T13:23:01.719Z,4576
2019-03-27T13:24:01.478Z,4788
2019-03-27T13:25:01.242Z,4928
2019-03-27T13:26:01.258Z,4864
2019-03-27T13:27:01.280Z,4940
2019-03-27T13:28:01.823Z,5276
2019-03-27T13:29:01.843Z,5640
2019-03-27T13:30:01.607Z,5932
2019-03-27T13:31:01.357Z,6252
2019-03-27T13:32:02.192Z,6208
2019-03-27T13:33:01.920Z,6044
2019-03-27T13:34:01.947Z,6024
2019-03-27T13:35:01.437Z,5928
2019-03-27T13:36:01.983Z,6296
2019-03-27T13:37:01.734Z,6752
2019-03-27T13:38:01.763Z,7104
2019-03-27T13:39:02.309Z,7148
2019-03-27T13:40:04.741Z,7068
2019-03-27T13:41:02.339Z,7016
2019-03-27T13:42:02.368Z,7168
2019-03-27T13:43:02.127Z,7272
2019-03-27T13:44:01.893Z,7380
2019-03-27T13:45:02.518Z,7408
2019-03-27T13:46:02.187Z,7492
2019-03-27T13:47:02.491Z,7548
2019-03-27T13:48:02.232Z,7324
2019-03-27T13:49:02.244Z,6940
2019-03-27T13:50:02.004Z,6892
2019-03-27T13:51:02.440Z,7008
2019-03-27T13:52:02.310Z,6972
2019-03-27T13:53:02.333Z,6872
2019-03-27T13:54:02.344Z,6988
2019-03-27T13:55:02.107Z,7196